createdAt,value
2018-08-18T00:00:17.457Z,25.70
2018-08-18T00:02:45.836Z,25.70
2018-08-18T00:05:14.990Z,25.60
2018-08-18T00:07:43.754Z,25.60
2018-08-18T00:10:14.185Z,25.70
2018-08-18T00:12:42.561Z,25.70
2018-08-18T00:15:11.044Z,25.70
2018-08-18T00:17:40.120Z,25.60
2018-08-18T00:20:12.336Z,25.70
2018-08-18T00:22:40.950Z,25.60
2018-08-18T00:25:09.510Z,25.60
2018-08-18T00:27:37.908Z,25.50
2018-08-18T00:30:13.518Z,25.50
2018-08-18T00:32:42.079Z,25.50
2018-08-18T00:35:10.648Z,25.60
2018-08-18T00:37:39.098Z,25.60
2018-08-18T00:40:08.548Z,25.60
2018-08-18T00:42:37.458Z,25.60
2018-08-18T00:45:07.534Z,25.60
2018-08-18T00:47:36.415Z,25.60
2018-08-18T00:50:05.336Z,25.60
2018-08-18T00:52:33.795Z,25.60
2018-08-18T00:55:02.574Z,25.60
2018-08-18T00:57:32.415Z,25.60
2018-08-18T01:00:01.103Z,25.60
2018-08-18T01:02:29.773Z,25.60
2018-08-18T01:04:59.556Z,25.60
2018-08-18T01:07:29.168Z,25.60
2018-08-18T01:09:58.171Z,25.60
2018-08-18T01:12:27.438Z,25.60
2018-08-18T01:14:56.560Z,25.70
2018-08-18T01:17:25.148Z,25.70
2018-08-18T01:19:55.309Z,25.70
2018-08-18T01:22:23.794Z,25.70
2018-08-18T01:24:52.768Z,25.60
2018-08-18T01:27:21.456Z,25.60
2018-08-18T01:29:55.989Z,25.60
2018-08-18T01:32:24.474Z,25.60
2018-08-18T01:34:53.574Z,25.60
2018-08-18T01:37:22.214Z,25.60
2018-08-18T01:39:53.684Z,25.60
2018-08-18T01:42:22.636Z,25.60
2018-08-18T01:44:52.512Z,25.50
2018-08-18T01:47:20.992Z,25.50
2018-08-18T01:49:49.602Z,25.50
2018-08-18T01:52:24.482Z,25.40
2018-08-18T01:54:53.203Z,25.50
2018-08-18T01:57:22.480Z,25.40
2018-08-18T01:59:51.424Z,25.50
2018-08-18T02:02:23.830Z,25.50
2018-08-18T02:04:52.897Z,25.50
2018-08-18T02:07:26.043Z,25.50
2018-08-18T02:09:55.091Z,25.50
2018-08-18T02:12:23.940Z,25.50
2018-08-18T02:14:52.440Z,25.50
2018-08-18T02:17:37.639Z,25.60
2018-08-18T02:20:07.969Z,25.60
2018-08-18T02:22:36.344Z,25.60
2018-08-18T02:25:05.555Z,25.60
2018-08-18T02:27:34.037Z,25.60
2018-08-18T02:30:23.280Z,25.60
2018-08-18T02:32:51.755Z,25.60
2018-08-18T02:35:21.562Z,25.50
2018-08-18T02:37:49.964Z,25.50
2018-08-18T02:40:18.836Z,25.50
2018-08-18T02:42:47.240Z,25.60
2018-08-18T02:45:16.491Z,25.60
2018-08-18T02:47:44.851Z,25.60
2018-08-18T02:50:14.232Z,25.60
2018-08-18T02:52:42.609Z,25.60
2018-08-18T02:55:12.045Z,25.60
2018-08-18T02:57:41.912Z,25.60
2018-08-18T03:00:23.563Z,25.60
2018-08-18T03:02:52.090Z,25.60
2018-08-18T03:05:20.626Z,25.60
2018-08-18T03:07:50.985Z,25.60
2018-08-18T03:10:23.478Z,25.60
2018-08-18T03:12:55.213Z,25.50
2018-08-18T03:16:06.363Z,25.50
2018-08-18T03:18:56.486Z,25.50
2018-08-18T03:21:31.084Z,25.50
2018-08-18T03:24:06.107Z,25.50
2018-08-18T03:26:53.481Z,25.50
2018-08-18T03:29:23.017Z,25.50
2018-08-18T03:31:51.710Z,25.50
2018-08-18T03:34:20.344Z,25.50
2018-08-18T03:36:50.822Z,25.30
2018-08-18T03:39:27.177Z,25.40
2018-08-18T03:41:56.901Z,25.30
2018-08-18T03:44:25.329Z,25.40
2018-08-18T03:46:53.715Z,25.40
2018-08-18T03:49:22.633Z,25.40
2018-08-18T03:51:52.167Z,25.40
2018-08-18T03:54:20.716Z,25.30
2018-08-18T03:56:49.708Z,25.30
2018-08-18T03:59:18.195Z,25.40
2018-08-18T04:02:04.608Z,25.40
2018-08-18T04:04:35.309Z,25.30
2018-08-18T04:07:04.688Z,25.30
2018-08-18T04:09:37.537Z,25.30
2018-08-18T04:12:07.238Z,25.30
2018-08-18T04:14:40.997Z,25.40
2018-08-18T04:17:20.796Z,25.40
2018-08-18T04:19:49.694Z,25.40
2018-08-18T04:22:18.085Z,25.40
2018-08-18T04:24:47.690Z,25.30
2018-08-18T04:27:49.214Z,25.30
2018-08-18T04:30:20.367Z,25.30
2018-08-18T04:32:57.319Z,25.30
2018-08-18T04:35:26.992Z,25.20
2018-08-18T04:37:56.133Z,25.30
2018-08-18T04:40:25.079Z,25.20
2018-08-18T04:42:55.465Z,25.20
2018-08-18T04:45:23.913Z,25.20
2018-08-18T04:47:52.299Z,25.20
2018-08-18T04:50:21.434Z,25.20
2018-08-18T04:52:51.503Z,25.20
2018-08-18T04:55:20.517Z,25.10
2018-08-18T04:57:49.063Z,25.10
2018-08-18T05:00:17.529Z,25.00
2018-08-18T05:02:51.185Z,25.00
2018-08-18T05:05:27.828Z,25.00
2018-08-18T05:07:58.201Z,25.00
2018-08-18T05:10:27.249Z,25.00
2018-08-18T05:12:55.725Z,25.10
2018-08-18T05:15:24.217Z,25.10
2018-08-18T05:17:52.733Z,25.20
2018-08-18T05:20:23.641Z,25.20
2018-08-18T05:22:52.153Z,25.20
2018-08-18T05:25:29.613Z,25.30
2018-08-18T05:27:58.836Z,25.30
2018-08-18T05:30:27.260Z,25.30
2018-08-18T05:32:55.657Z,25.40
2018-08-18T05:35:24.129Z,25.40
2018-08-18T05:37:52.612Z,25.40
2018-08-18T05:40:21.249Z,25.40
2018-08-18T05:42:49.651Z,25.40
2018-08-18T05:45:27.140Z,25.40
2018-08-18T05:47:55.900Z,25.40
2018-08-18T05:50:25.983Z,25.50
2018-08-18T05:53:28.263Z,25.50
2018-08-18T05:55:56.991Z,25.50
2018-08-18T05:58:25.367Z,25.50
2018-08-18T06:00:57.075Z,25.50
2018-08-18T06:03:25.541Z,25.50
2018-08-18T06:05:54.111Z,25.50
2018-08-18T06:08:22.598Z,25.50
2018-08-18T06:10:50.965Z,25.60
2018-08-18T06:13:21.105Z,25.70
2018-08-18T06:16:05.454Z,25.80
2018-08-18T06:18:35.077Z,25.80
2018-08-18T06:21:04.095Z,25.90
2018-08-18T06:23:32.605Z,26.00
2018-08-18T06:26:02.243Z,26.00
2018-08-18T06:28:30.800Z,26.10
2018-08-18T06:30:59.258Z,26.10
2018-08-18T06:33:27.713Z,26.10
2018-08-18T06:35:56.185Z,26.10
2018-08-18T06:38:24.678Z,26.10
2018-08-18T06:41:00.275Z,26.10
2018-08-18T06:43:30.464Z,26.10
2018-08-18T06:45:59.339Z,26.10
2018-08-18T06:48:31.680Z,26.10
2018-08-18T06:51:00.037Z,26.10
2018-08-18T06:53:29.664Z,26.10
2018-08-18T06:55:59.114Z,26.20
2018-08-18T06:58:27.584Z,26.20
2018-08-18T07:00:56.189Z,26.20
2018-08-18T07:03:32.476Z,26.20
2018-08-18T07:06:01.361Z,26.20
2018-08-18T07:08:29.920Z,26.20
2018-08-18T07:10:58.333Z,26.20
2018-08-18T07:13:26.775Z,26.20
2018-08-18T07:15:55.362Z,26.20
2018-08-18T07:18:23.874Z,26.30
2018-08-18T07:20:52.228Z,26.30
2018-08-18T07:23:20.674Z,26.30
2018-08-18T07:25:59.474Z,26.30
2018-08-18T07:28:28.146Z,26.30
2018-08-18T07:30:56.636Z,26.30
2018-08-18T07:33:25.340Z,26.30
2018-08-18T07:35:53.897Z,26.30
2018-08-18T07:38:22.341Z,26.30
2018-08-18T07:40:51.921Z,26.30
2018-08-18T07:43:21.944Z,26.40
2018-08-18T07:45:51.429Z,26.40
2018-08-18T07:48:19.910Z,26.40
2018-08-18T07:50:48.452Z,26.50
2018-08-18T07:53:17.051Z,26.40
2018-08-18T07:55:45.398Z,26.40
2018-08-18T07:58:15.546Z,26.50
2018-08-18T08:00:43.984Z,26.50
2018-08-18T08:03:13.595Z,26.50
2018-08-18T08:05:42.046Z,26.50
2018-08-18T08:08:10.885Z,26.50
2018-08-18T08:10:39.466Z,26.50
2018-08-18T08:13:09.328Z,26.50
2018-08-18T08:15:37.830Z,26.50
2018-08-18T08:18:06.246Z,26.50
2018-08-18T08:20:34.702Z,26.50
2018-08-18T08:23:03.154Z,26.50
2018-08-18T08:25:31.635Z,26.50
2018-08-18T08:28:00.050Z,26.50
2018-08-18T08:30:28.448Z,26.50
2018-08-18T08:32:57.104Z,26.50
2018-08-18T08:35:25.957Z,26.40
2018-08-18T08:37:55.047Z,26.40
2018-08-18T08:40:24.494Z,26.40
2018-08-18T08:42:53.050Z,26.40
2018-08-18T08:45:23.343Z,26.40
2018-08-18T08:47:51.755Z,26.40
2018-08-18T08:50:23.716Z,26.40
2018-08-18T08:52:56.380Z,26.40
2018-08-18T08:55:26.112Z,26.40
2018-08-18T08:57:54.706Z,26.40
2018-08-18T09:00:23.243Z,26.40
2018-08-18T09:02:51.748Z,26.40
2018-08-18T09:05:20.744Z,26.40
2018-08-18T09:07:49.350Z,26.40
2018-08-18T09:10:18.200Z,26.40
2018-08-18T09:12:47.166Z,26.40
2018-08-18T09:15:16.505Z,26.50
2018-08-18T09:17:45.048Z,26.40
2018-08-18T09:20:17.989Z,26.50
2018-08-18T09:22:56.338Z,26.40
2018-08-18T09:25:26.756Z,26.50
2018-08-18T09:27:57.454Z,26.50
2018-08-18T09:30:27.339Z,26.50
2018-08-18T09:32:59.904Z,26.50
2018-08-18T09:35:28.373Z,26.50
2018-08-18T09:37:59.336Z,26.60
2018-08-18T09:40:29.193Z,26.60
2018-08-18T09:42:57.776Z,26.50
2018-08-18T09:45:26.285Z,26.60
2018-08-18T09:47:54.787Z,26.50
2018-08-18T09:50:23.282Z,26.50
2018-08-18T09:52:51.674Z,26.50
2018-08-18T09:55:20.050Z,26.60
2018-08-18T09:57:48.522Z,26.60
2018-08-18T10:00:17.004Z,26.60
2018-08-18T10:02:45.512Z,26.50
2018-08-18T10:05:14.124Z,26.60
2018-08-18T10:07:42.689Z,26.60
2018-08-18T10:10:12.874Z,26.50
2018-08-18T10:12:41.668Z,26.50
2018-08-18T10:15:10.193Z,26.50
2018-08-18T10:17:38.588Z,26.60
2018-08-18T10:20:07.362Z,26.60
2018-08-18T10:22:35.739Z,26.60
2018-08-18T10:25:04.594Z,26.60
2018-08-18T10:27:33.715Z,26.50
2018-08-18T10:30:02.493Z,26.50
2018-08-18T10:32:30.907Z,26.50
2018-08-18T10:34:59.458Z,26.50
2018-08-18T10:37:28.020Z,26.60
2018-08-18T10:40:01.838Z,26.60
2018-08-18T10:42:31.911Z,26.60
2018-08-18T10:45:01.066Z,26.60
2018-08-18T10:47:29.876Z,26.70
2018-08-18T10:50:09.732Z,26.70
2018-08-18T10:52:49.555Z,26.70
2018-08-18T10:55:19.006Z,26.70
2018-08-18T10:58:02.345Z,26.70
2018-08-18T11:00:31.984Z,26.70
2018-08-18T11:03:01.747Z,26.70
2018-08-18T11:05:30.689Z,26.70
2018-08-18T11:08:04.983Z,26.80
2018-08-18T11:10:35.097Z,26.70
2018-08-18T11:13:03.834Z,26.70
2018-08-18T11:15:32.293Z,26.70
2018-08-18T11:18:00.829Z,26.80
2018-08-18T11:20:30.524Z,26.70
2018-08-18T11:23:02.541Z,26.80
2018-08-18T11:25:35.815Z,26.80
2018-08-18T11:28:04.545Z,26.80
2018-08-18T11:30:33.260Z,26.80
2018-08-18T11:33:02.185Z,26.90
2018-08-18T11:35:31.393Z,26.80
2018-08-18T11:38:06.194Z,26.80
2018-08-18T11:40:34.643Z,26.80
2018-08-18T11:43:04.316Z,26.80
2018-08-18T11:45:34.185Z,26.80
2018-08-18T11:48:09.935Z,26.70
2018-08-18T11:50:38.597Z,26.70
2018-08-18T11:53:07.266Z,26.70
2018-08-18T11:55:36.515Z,26.70
2018-08-18T11:58:06.750Z,26.70
2018-08-18T12:00:39.316Z,26.70
2018-08-18T12:03:11.979Z,26.70
2018-08-18T12:05:50.590Z,26.70
2018-08-18T12:08:19.870Z,26.70
2018-08-18T12:10:49.391Z,26.70
2018-08-18T12:13:18.076Z,26.70
2018-08-18T12:16:00.009Z,26.60
2018-08-18T12:18:30.936Z,26.60
2018-08-18T12:21:00.657Z,26.60
2018-08-18T12:23:29.743Z,26.70
2018-08-18T12:26:03.726Z,26.70
2018-08-18T12:28:37.403Z,26.70
2018-08-18T12:31:07.180Z,26.90
2018-08-18T12:33:35.576Z,26.80
2018-08-18T12:36:04.045Z,26.90
2018-08-18T12:38:33.121Z,27.00
2018-08-18T12:41:02.290Z,27.10
2018-08-18T12:43:34.213Z,27.10
2018-08-18T12:46:03.027Z,27.10
2018-08-18T12:48:34.432Z,27.10
2018-08-18T12:51:03.562Z,27.10
2018-08-18T12:53:37.293Z,27.10
2018-08-18T12:56:06.311Z,27.20
2018-08-18T12:58:34.880Z,27.20
2018-08-18T13:01:03.249Z,27.30
2018-08-18T13:03:31.858Z,27.30
2018-08-18T13:06:00.367Z,27.30
2018-08-18T13:08:28.989Z,27.20
2018-08-18T13:10:57.400Z,27.10
2018-08-18T13:13:25.768Z,27.10
2018-08-18T13:15:55.317Z,27.30
2018-08-18T13:18:24.162Z,27.10
2018-08-18T13:20:54.075Z,27.10
2018-08-18T13:23:24.249Z,27.10
2018-08-18T13:25:53.967Z,27.10
2018-08-18T13:28:22.659Z,27.10
2018-08-18T13:30:51.239Z,27.00
2018-08-18T13:33:19.687Z,26.90
2018-08-18T13:35:49.606Z,27.00
2018-08-18T13:38:27.996Z,27.30
2018-08-18T13:40:56.873Z,27.40
2018-08-18T13:43:46.700Z,27.30
2018-08-18T13:46:16.749Z,27.10
2018-08-18T13:48:51.290Z,27.10
2018-08-18T13:51:20.789Z,27.00
2018-08-18T13:53:52.190Z,27.00
2018-08-18T13:56:22.217Z,27.00
2018-08-18T13:58:52.208Z,26.90
2018-08-18T14:01:33.491Z,27.10
2018-08-18T14:04:02.195Z,27.10
2018-08-18T14:06:37.816Z,27.20
2018-08-18T14:09:06.676Z,27.20
2018-08-18T14:11:35.281Z,27.40
2018-08-18T14:14:03.686Z,27.30
2018-08-18T14:16:32.586Z,27.40
2018-08-18T14:19:01.462Z,27.40
2018-08-18T14:21:29.865Z,27.40
2018-08-18T14:23:58.277Z,27.40
2018-08-18T14:26:26.708Z,27.60
2018-08-18T14:28:55.086Z,27.50
2018-08-18T14:31:23.567Z,27.50
2018-08-18T14:33:52.156Z,27.70
2018-08-18T14:36:23.088Z,27.70
2018-08-18T14:38:52.582Z,27.50
2018-08-18T14:41:40.167Z,27.50
2018-08-18T14:44:08.745Z,27.70
2018-08-18T14:46:37.243Z,27.50
2018-08-18T14:49:05.545Z,27.50
2018-08-18T14:51:38.127Z,27.50
2018-08-18T14:54:07.269Z,27.40
2018-08-18T14:56:35.569Z,27.30
2018-08-18T14:59:04.052Z,27.40
2018-08-18T15:01:32.590Z,27.50
2018-08-18T15:04:01.002Z,27.40
2018-08-18T15:06:29.422Z,27.30
2018-08-18T15:08:57.825Z,27.40
2018-08-18T15:11:26.281Z,27.40
2018-08-18T15:13:54.714Z,27.50
2018-08-18T15:16:23.305Z,27.60
2018-08-18T15:18:51.865Z,27.60
2018-08-18T15:21:20.268Z,27.40
2018-08-18T15:23:48.862Z,27.40
2018-08-18T15:26:17.324Z,27.30
2018-08-18T15:28:45.969Z,27.30
2018-08-18T15:31:14.595Z,27.20
2018-08-18T15:33:42.984Z,27.30
2018-08-18T15:36:24.932Z,27.50
2018-08-18T15:38:53.322Z,27.70
2018-08-18T15:41:24.089Z,27.80
2018-08-18T15:43:52.597Z,27.80
2018-08-18T15:46:21.900Z,27.60
2018-08-18T15:48:50.352Z,27.50
2018-08-18T15:51:18.838Z,27.40
2018-08-18T15:53:49.522Z,27.30
2018-08-18T15:56:19.166Z,27.20
2018-08-18T15:58:48.491Z,27.40
2018-08-18T16:01:17.347Z,27.30
2018-08-18T16:03:45.952Z,27.30
2018-08-18T16:06:14.437Z,27.20
2018-08-18T16:08:42.900Z,27.20
2018-08-18T16:11:11.400Z,27.20
2018-08-18T16:13:40.005Z,27.20
2018-08-18T16:16:08.525Z,27.10
2018-08-18T16:18:37.166Z,27.20
2018-08-18T16:21:13.175Z,27.40
2018-08-18T16:23:42.301Z,27.30
2018-08-18T16:26:11.650Z,27.40
2018-08-18T16:28:40.581Z,27.40
2018-08-18T16:31:09.715Z,27.40
2018-08-18T16:33:38.341Z,27.40
2018-08-18T16:36:06.802Z,27.40
2018-08-18T16:38:35.234Z,27.30
2018-08-18T16:41:03.720Z,27.30
2018-08-18T16:43:34.771Z,27.30
2018-08-18T16:46:19.804Z,27.20
2018-08-18T16:48:48.741Z,27.30
2018-08-18T16:51:17.298Z,27.20
2018-08-18T16:53:45.935Z,27.30
2018-08-18T16:56:25.296Z,27.30
2018-08-18T16:58:55.153Z,27.30
2018-08-18T17:01:23.872Z,27.30
2018-08-18T17:03:52.387Z,27.30
2018-08-18T17:06:20.904Z,27.40
2018-08-18T17:08:49.481Z,27.30
2018-08-18T17:11:18.163Z,27.30
2018-08-18T17:13:46.641Z,27.30
2018-08-18T17:16:15.027Z,27.30
2018-08-18T17:18:43.467Z,27.30
2018-08-18T17:21:13.546Z,27.20
2018-08-18T17:23:42.450Z,27.20
2018-08-18T17:26:10.895Z,27.30
2018-08-18T17:28:39.378Z,27.20
2018-08-18T17:31:08.004Z,27.20
2018-08-18T17:33:36.348Z,27.20
2018-08-18T17:36:04.923Z,27.20
2018-08-18T17:38:33.332Z,27.20
2018-08-18T17:41:01.699Z,27.20
2018-08-18T17:43:30.176Z,27.20
2018-08-18T17:46:01.195Z,27.20
2018-08-18T17:48:30.373Z,27.20
2018-08-18T17:50:58.888Z,27.20
2018-08-18T17:53:27.285Z,27.20
2018-08-18T17:56:02.873Z,27.20
2018-08-18T17:58:31.689Z,27.10
2018-08-18T18:01:00.666Z,27.10
2018-08-18T18:03:29.454Z,27.10
2018-08-18T18:05:57.909Z,27.10
2018-08-18T18:08:26.467Z,27.20
2018-08-18T18:10:55.059Z,27.20
2018-08-18T18:13:28.596Z,27.10
2018-08-18T18:15:57.039Z,27.10
2018-08-18T18:18:58.248Z,27.20
2018-08-18T18:21:26.677Z,27.20
2018-08-18T18:23:55.159Z,27.20
2018-08-18T18:26:23.539Z,27.20
2018-08-18T18:28:52.357Z,27.20
2018-08-18T18:31:21.733Z,27.20
2018-08-18T18:33:56.534Z,27.20
2018-08-18T18:36:24.946Z,27.10
2018-08-18T18:38:56.637Z,27.10
2018-08-18T18:41:25.387Z,27.10
2018-08-18T18:44:02.155Z,27.10
2018-08-18T18:46:30.519Z,27.00
2018-08-18T18:48:58.888Z,27.00
2018-08-18T18:51:27.513Z,27.00
2018-08-18T18:53:57.864Z,27.00
2018-08-18T18:56:26.328Z,27.00
2018-08-18T18:58:55.008Z,26.90
2018-08-18T19:01:23.482Z,26.90
2018-08-18T19:03:51.912Z,26.90
2018-08-18T19:06:20.464Z,26.90
2018-08-18T19:08:58.685Z,26.90
2018-08-18T19:11:28.200Z,26.90
2018-08-18T19:13:57.170Z,26.90
2018-08-18T19:16:25.680Z,27.00
2018-08-18T19:18:54.474Z,27.00
2018-08-18T19:21:26.990Z,27.00
2018-08-18T19:23:55.498Z,26.90
2018-08-18T19:26:23.960Z,26.90
2018-08-18T19:28:52.410Z,26.90
2018-08-18T19:31:25.140Z,26.90
2018-08-18T19:34:02.476Z,26.90
2018-08-18T19:36:30.922Z,26.90
2018-08-18T19:38:59.364Z,26.90
2018-08-18T19:41:27.864Z,26.90
2018-08-18T19:43:56.256Z,26.90
2018-08-18T19:46:24.696Z,26.90
2018-08-18T19:48:53.704Z,26.80
2018-08-18T19:51:22.119Z,26.90
2018-08-18T19:53:51.151Z,26.90
2018-08-18T19:56:19.596Z,26.90
2018-08-18T19:58:48.171Z,26.90
2018-08-18T20:01:16.894Z,26.90
2018-08-18T20:03:45.288Z,26.90
2018-08-18T20:06:19.114Z,26.90
2018-08-18T20:08:47.502Z,26.80
2018-08-18T20:11:16.193Z,26.90
2018-08-18T20:13:44.569Z,26.90
2018-08-18T20:16:12.956Z,26.90
2018-08-18T20:18:42.498Z,26.80
2018-08-18T20:21:13.819Z,26.80
2018-08-18T20:23:42.239Z,26.80
2018-08-18T20:26:10.708Z,26.80
2018-08-18T20:28:39.277Z,26.80
2018-08-18T20:31:07.759Z,26.80
2018-08-18T20:33:36.253Z,26.80
2018-08-18T20:36:04.685Z,26.80
2018-08-18T20:38:38.415Z,26.80
2018-08-18T20:41:06.964Z,26.80
2018-08-18T20:43:35.466Z,26.80
2018-08-18T20:46:03.864Z,26.80
2018-08-18T20:48:32.383Z,26.80
2018-08-18T20:51:00.867Z,26.70
2018-08-18T20:53:29.272Z,26.70
2018-08-18T20:55:59.269Z,26.70
2018-08-18T20:58:29.438Z,26.70
2018-08-18T21:00:57.913Z,26.70
2018-08-18T21:03:40.470Z,26.60
2018-08-18T21:06:09.021Z,26.60
2018-08-18T21:08:37.496Z,26.60
2018-08-18T21:11:06.021Z,26.60
2018-08-18T21:13:34.692Z,26.60
2018-08-18T21:16:03.172Z,26.60
2018-08-18T21:18:32.428Z,26.60
2018-08-18T21:21:01.390Z,26.50
2018-08-18T21:23:29.747Z,26.50
2018-08-18T21:25:58.160Z,26.40
2018-08-18T21:28:27.005Z,26.40
2018-08-18T21:30:55.332Z,26.50
2018-08-18T21:33:25.152Z,26.50
2018-08-18T21:35:53.894Z,26.50
2018-08-18T21:38:22.537Z,26.50
2018-08-18T21:40:50.947Z,26.50
2018-08-18T21:43:30.415Z,26.50
2018-08-18T21:45:58.806Z,26.50
2018-08-18T21:48:38.485Z,26.50
2018-08-18T21:51:07.181Z,26.50
2018-08-18T21:53:35.576Z,26.50
2018-08-18T21:56:04.094Z,26.50
2018-08-18T21:58:32.721Z,26.50
2018-08-18T22:01:06.450Z,26.50
2018-08-18T22:03:34.780Z,26.50
2018-08-18T22:06:03.213Z,26.50
2018-08-18T22:08:31.626Z,26.50
2018-08-18T22:11:00.242Z,26.50
2018-08-18T22:13:33.033Z,26.50
2018-08-18T22:16:02.035Z,26.50
2018-08-18T22:18:30.473Z,26.50
2018-08-18T22:20:58.853Z,26.50
2018-08-18T22:23:27.258Z,26.50
2018-08-18T22:25:55.749Z,26.50
2018-08-18T22:28:24.116Z,26.50
2018-08-18T22:30:54.658Z,26.50
2018-08-18T22:33:26.280Z,26.50
2018-08-18T22:35:57.700Z,26.50
2018-08-18T22:38:26.114Z,26.50
2018-08-18T22:40:54.562Z,26.50
2018-08-18T22:43:34.277Z,26.50
2018-08-18T22:46:02.684Z,26.50
2018-08-18T22:48:31.217Z,26.50
2018-08-18T22:50:59.881Z,26.50
2018-08-18T22:53:28.294Z,26.50
2018-08-18T22:55:56.739Z,26.50
2018-08-18T22:58:25.188Z,26.50
2018-08-18T23:00:56.339Z,26.50
2018-08-18T23:03:24.694Z,26.50
2018-08-18T23:05:53.262Z,26.40
2018-08-18T23:08:22.497Z,26.40
2018-08-18T23:10:51.005Z,26.40
2018-08-18T23:13:19.401Z,26.40
2018-08-18T23:15:47.796Z,26.40
2018-08-18T23:18:16.195Z,26.30
2018-08-18T23:20:44.627Z,26.20
2018-08-18T23:23:13.365Z,26.10
2018-08-18T23:25:41.828Z,26.10
2018-08-18T23:28:10.173Z,26.20
2018-08-18T23:30:39.625Z,26.20
2018-08-18T23:33:09.453Z,26.20
2018-08-18T23:35:37.918Z,26.20
2018-08-18T23:38:06.372Z,26.10
2018-08-18T23:40:34.813Z,26.10
2018-08-18T23:43:03.177Z,26.10
2018-08-18T23:45:48.358Z,26.10
2018-08-18T23:48:16.746Z,26.20
2018-08-18T23:50:45.293Z,26.20
2018-08-18T23:53:15.273Z,26.20
2018-08-18T23:56:00.389Z,26.20
2018-08-18T23:58:29.983Z,26.20
